Airfield :
LOGIN :

Register | Disclaimer

   EN    FR    IT 

 










Legend :    VFR   Marginal VFR   IFR   Intensive IFR   Very Intensive IFR
Visi :
Ceiling :
>= 8 km
>= 3000ft
5 to 8 km
1000 to 3000 ft
1500m to 5 km
500 to 1000 ft
800 to 1500m
200 to 500 ft
< 800m
< 200 ft
Symbols :   Thunderstorms  Fog  Heavy snow  Heavy precipitations  Wind > 20 kt
SIGMETs :     Misc.  Thunderstorms  Icing  Turbulence  Mountain Waves  Volcanic Ashes






- Airport Elevation : 461 ft
- IATA code : WIE


ETOU - Wiesbaden Army

CURRENT METAR :
  • 171706Z AUTO 02004KT 9999 -RA BKN014 06/05 A2963 RMK AO2 SLP041 $

EXPIRED METARs :
  • 171656Z AUTO 01005KT 9999 -RA OVC013 06/05 A2963 RMK AO2 SLP041 P0001 T00590045 $
  • 171556Z AUTO 02006KT 9999 -RA OVC019 06/04 A2963 RMK AO2 SLP041 P0004 T00600042
  • 171536Z AUTO 02007KT 9999 -RA OVC019 06/04 A2964 RMK AO2 SLP044 $
  • 171456Z AUTO 02008KT 9999 -RA OVC020 06/04 A2965 RMK AO2 SLP047 P0003 60006 T00590039 57023 $

TAF TAF ETOU
Valid from the 16 at 12:00 until the 17 at 18:00 UTC


161206Z 1612/1718 22006KT 9999 SCT100 BKN120 QNH2979INS
BECMG 1618/1619 VRB06KT 5000 BR OVC010 QNH2975INS
BECMG 1709/1710 01006KT 9999 NSW SCT020 QNH2965INS
BECMG 1712/1713 02012KT 8000 -SHRA OVC015 610604 QNH2954INS TX07/1614Z TN00/1700Z LAST NO AMDS AFT 1618 NEXT 1804



MET'MAP, your aeronautical weather chart ! - Copyright ORBIFLY December 2007 - Disclaimer

ORBIFLY MET'MAP TEAM :

Programming & Development : Alexandra Zaïnal
Concept & Development : Baudouin d'Aumeries
Co-Development & Prog : Marc-Olivier Méhu
Technical & hardware support : Manuel Goepfert

Contact : metmap@orbifly.com




SOURCES & CREDITS :

   NOAA